Time;durP1;ratioP1;P1;durP2;ratioP2;P2;SDS_P1;SDS_P2;PMS_P1;PMS_P2;Temp;Humidity;BMP_temperature;BMP_pressure;BME280_temperature;BME280_humidity;BME280_pressure;Samples;Min_cycle;Max_cycle;Signal;HPM_P1;HPM_P2
2023/07/17 00:01:52;;;;;;;9.30;3.00;;;;;;;17.27;100.00;101343.69;5014724;28;20042;-57
2023/07/17 00:04:20;;;;;;;8.95;3.17;;;;;;;17.24;100.00;101346.63;5012389;28;20172;-57
2023/07/17 00:06:49;;;;;;;9.23;3.28;;;;;;;17.28;100.00;101340.09;5011406;28;20046;-56
2023/07/17 00:09:19;;;;;;;8.63;3.40;;;;;;;17.23;100.00;101345.81;5014197;28;20053;-58
2023/07/17 00:11:48;;;;;;;6.70;2.92;;;;;;;17.22;100.00;101351.25;5015072;28;20488;-56
2023/07/17 00:14:16;;;;;;;8.48;3.15;;;;;;;17.19;100.00;101348.84;5012635;28;20847;-58
2023/07/17 00:16:44;;;;;;;9.35;3.45;;;;;;;17.18;100.00;101349.84;5010632;28;20157;-63
2023/07/17 00:19:12;;;;;;;8.00;3.35;;;;;;;17.14;100.00;101343.94;5012991;28;20137;-57
2023/07/17 00:21:40;;;;;;;9.48;3.25;;;;;;;17.15;100.00;101355.38;5011514;28;20050;-63
2023/07/17 00:24:10;;;;;;;10.38;3.78;;;;;;;17.16;100.00;101354.41;5011485;28;20046;-63
2023/07/17 00:26:41;;;;;;;9.25;3.38;;;;;;;17.04;100.00;101349.19;5014583;28;20042;-56
2023/07/17 00:29:24;;;;;;;8.63;3.30;;;;;;;17.04;100.00;101350.97;5010073;28;20052;-62
2023/07/17 00:31:53;;;;;;;8.18;3.40;;;;;;;17.05;100.00;101348.19;5010822;28;20054;-63
2023/07/17 00:34:21;;;;;;;8.13;3.30;;;;;;;16.99;100.00;101358.53;5010620;28;20046;-63
2023/07/17 00:36:50;;;;;;;7.50;3.90;;;;;;;17.07;100.00;101356.06;5011605;28;20068;-63
2023/07/17 00:39:20;;;;;;;8.10;3.78;;;;;;;16.98;100.00;101367.47;5013109;28;20112;-64
2023/07/17 00:41:50;;;;;;;8.23;3.88;;;;;;;17.01;100.00;101360.03;5010584;28;20050;-64
2023/07/17 00:44:19;;;;;;;9.77;3.63;;;;;;;16.89;100.00;101361.09;5012886;28;20041;-64
2023/07/17 00:46:48;;;;;;;7.63;3.20;;;;;;;16.86;100.00;101359.50;5011047;28;20236;-63
2023/07/17 00:49:18;;;;;;;8.35;3.80;;;;;;;16.99;100.00;101363.84;5010993;28;20056;-63
2023/07/17 00:51:46;;;;;;;10.50;3.67;;;;;;;16.81;100.00;101363.50;5014227;28;20096;-63
2023/07/17 00:54:15;;;;;;;7.25;3.25;;;;;;;16.80;100.00;101369.81;5014229;28;20124;-58
2023/07/17 00:56:47;;;;;;;9.02;4.07;;;;;;;16.84;100.00;101368.59;5014085;28;20046;-57
2023/07/17 00:59:16;;;;;;;7.57;3.20;;;;;;;16.73;100.00;101367.66;5013851;28;20045;-63
2023/07/17 01:01:44;;;;;;;7.70;3.60;;;;;;;16.72;100.00;101365.97;5013976;28;20050;-63
2023/07/17 01:04:14;;;;;;;9.73;3.60;;;;;;;16.66;100.00;101368.28;5012599;28;20078;-56
2023/07/17 01:06:42;;;;;;;8.68;3.35;;;;;;;16.62;100.00;101373.03;5009720;28;20050;-57
2023/07/17 01:09:12;;;;;;;8.55;3.72;;;;;;;16.64;100.00;101381.69;5009914;28;20041;-57
2023/07/17 01:11:40;;;;;;;8.73;3.70;;;;;;;16.55;100.00;101371.81;5009811;28;20046;-57
2023/07/17 01:14:16;;;;;;;6.50;3.42;;;;;;;16.51;100.00;101378.34;5008339;28;20056;-56
2023/07/17 01:16:46;;;;;;;6.82;3.08;;;;;;;16.57;100.00;101369.91;5010089;28;20068;-63
2023/07/17 01:19:15;;;;;;;8.93;3.17;;;;;;;16.47;100.00;101374.25;5010238;28;20049;-62
2023/07/17 01:21:50;;;;;;;12.95;3.53;;;;;;;16.48;100.00;101365.34;5012684;28;20424;-64
2023/07/17 01:24:20;;;;;;;8.25;3.45;;;;;;;16.36;100.00;101368.03;5013619;28;20132;-63
2023/07/17 01:26:50;;;;;;;8.88;3.17;;;;;;;16.26;100.00;101368.91;5009704;28;20045;-62
2023/07/17 01:29:18;;;;;;;8.35;3.78;;;;;;;16.27;100.00;101374.09;5009645;28;20588;-63
2023/07/17 01:31:47;;;;;;;8.55;3.20;;;;;;;16.23;100.00;101370.81;5011865;28;20060;-63
2023/07/17 01:34:15;;;;;;;8.25;3.80;;;;;;;16.26;100.00;101382.16;5009537;28;20711;-63
2023/07/17 01:36:43;;;;;;;8.80;3.50;;;;;;;16.23;100.00;101377.97;5009022;28;20045;-63
2023/07/17 01:39:11;;;;;;;6.78;3.63;;;;;;;16.21;100.00;101382.53;5009117;28;20563;-63
2023/07/17 01:41:41;;;;;;;11.00;3.55;;;;;;;16.19;100.00;101387.13;5008928;28;20353;-63
2023/07/17 01:44:09;;;;;;;8.52;3.40;;;;;;;16.15;100.00;101381.22;5010338;28;20050;-63
2023/07/17 01:46:37;;;;;;;8.13;3.78;;;;;;;16.12;100.00;101380.63;5012936;28;20038;-63
2023/07/17 01:49:07;;;;;;;11.18;3.40;;;;;;;16.08;100.00;101377.38;5009296;28;20500;-63
2023/07/17 01:51:35;;;;;;;7.63;3.25;;;;;;;16.08;100.00;101382.69;5008771;28;20132;-63
2023/07/17 01:54:03;;;;;;;8.68;3.50;;;;;;;16.03;100.00;101382.19;5009747;28;20045;-64
2023/07/17 01:56:32;;;;;;;8.85;3.50;;;;;;;16.01;100.00;101392.94;5008935;28;20065;-64
2023/07/17 01:59:01;;;;;;;7.75;3.40;;;;;;;15.97;100.00;101385.34;5007781;28;20065;-63
2023/07/17 02:01:31;;;;;;;8.50;3.55;;;;;;;15.97;100.00;101383.53;5011128;28;20073;-63
2023/07/17 02:03:59;;;;;;;6.35;2.60;;;;;;;15.90;100.00;101387.66;5008195;28;20466;-63
2023/07/17 02:06:28;;;;;;;7.90;3.53;;;;;;;15.88;100.00;101382.47;5008775;28;20084;-63
2023/07/17 02:08:56;;;;;;;10.48;3.80;;;;;;;15.89;100.00;101388.59;5010344;28;20493;-63
2023/07/17 02:11:27;;;;;;;7.05;3.30;;;;;;;15.86;100.00;101386.22;5010485;28;20081;-63
2023/07/17 02:13:56;;;;;;;9.02;3.47;;;;;;;15.84;100.00;101386.34;5007934;28;20529;-62
2023/07/17 02:16:25;;;;;;;11.57;3.65;;;;;;;15.80;100.00;101389.31;5008641;28;20057;-62
2023/07/17 02:18:54;;;;;;;10.77;3.45;;;;;;;15.79;100.00;101379.66;5008785;28;20873;-63
2023/07/17 02:21:22;;;;;;;7.97;3.33;;;;;;;15.79;100.00;101379.66;5009310;28;20049;-63
2023/07/17 02:23:50;;;;;;;8.43;3.58;;;;;;;15.81;100.00;101383.06;5008750;28;20141;-64
2023/07/17 02:26:18;;;;;;;8.25;3.13;;;;;;;15.74;100.00;101381.84;5008608;28;20061;-64
2023/07/17 02:28:46;;;;;;;8.00;3.33;;;;;;;15.73;100.00;101383.63;5006385;28;20509;-64
2023/07/17 02:31:14;;;;;;;7.57;3.40;;;;;;;15.72;100.00;101393.41;5008236;28;20057;-63
2023/07/17 02:33:45;;;;;;;8.43;3.53;;;;;;;15.68;100.00;101388.47;5011020;28;20053;-64
2023/07/17 02:36:13;;;;;;;6.70;3.45;;;;;;;15.72;100.00;101389.91;5011080;28;20053;-62
2023/07/17 02:38:41;;;;;;;10.77;3.90;;;;;;;15.55;100.00;101385.91;5008261;28;20463;-62
2023/07/17 02:41:09;;;;;;;7.75;3.17;;;;;;;15.58;100.00;101396.28;5011059;28;20053;-56
2023/07/17 02:43:38;;;;;;;10.73;3.55;;;;;;;15.55;100.00;101394.69;5012232;28;20057;-62
2023/07/17 02:46:06;;;;;;;6.57;3.35;;;;;;;15.53;100.00;101395.81;5012171;28;20393;-62
2023/07/17 02:48:34;;;;;;;8.75;3.20;;;;;;;15.47;100.00;101393.63;5012038;28;20045;-62
2023/07/17 02:51:04;;;;;;;8.32;3.75;;;;;;;15.45;100.00;101406.16;5009857;28;20121;-63
2023/07/17 02:53:32;;;;;;;11.95;4.10;;;;;;;15.47;100.00;101404.22;5008475;28;20497;-63
2023/07/17 02:56:00;;;;;;;8.98;3.95;;;;;;;15.43;100.00;101413.38;5008944;28;20493;-63
2023/07/17 02:58:29;;;;;;;8.45;3.45;;;;;;;15.45;100.00;101408.81;5011408;28;20049;-62
2023/07/17 03:00:58;;;;;;;8.82;3.40;;;;;;;15.42;100.00;101409.88;5007638;28;20057;-63
2023/07/17 03:03:27;;;;;;;8.73;3.60;;;;;;;15.36;100.00;101415.66;5008436;28;20073;-57
2023/07/17 03:05:57;;;;;;;10.70;4.18;;;;;;;15.35;100.00;101417.47;5007688;28;20547;-57
2023/07/17 03:08:26;;;;;;;10.18;3.83;;;;;;;15.37;100.00;101420.81;5011044;28;20048;-57
2023/07/17 03:10:55;;;;;;;11.88;3.80;;;;;;;15.30;100.00;101416.97;5011617;28;20049;-57
2023/07/17 03:13:23;;;;;;;8.90;3.70;;;;;;;15.27;100.00;101425.16;5010385;28;20057;-57
2023/07/17 03:15:51;;;;;;;9.80;3.70;;;;;;;15.20;100.00;101416.81;5006923;28;20046;-57
2023/07/17 03:18:19;;;;;;;8.63;3.50;;;;;;;15.21;100.00;101425.59;5008846;28;20050;-56
2023/07/17 03:20:47;;;;;;;8.27;3.38;;;;;;;15.20;100.00;101421.25;5009012;28;20149;-56
2023/07/17 03:23:16;;;;;;;11.40;3.80;;;;;;;15.14;100.00;101419.91;5011780;28;20046;-57
2023/07/17 03:25:48;;;;;;;9.27;3.72;;;;;;;15.09;100.00;101421.22;5011992;28;20038;-56
2023/07/17 03:28:16;;;;;;;7.95;3.47;;;;;;;15.12;100.00;101421.00;5009239;28;20133;-62
2023/07/17 03:30:45;;;;;;;10.10;4.03;;;;;;;15.07;100.00;101420.53;5006806;28;20050;-62
2023/07/17 03:33:13;;;;;;;9.80;3.25;;;;;;;15.00;100.00;101420.97;5008485;28;20057;-62
2023/07/17 03:35:44;;;;;;;8.88;3.25;;;;;;;14.97;100.00;101430.94;5007413;28;20077;-62
2023/07/17 03:38:12;;;;;;;10.57;3.40;;;;;;;14.97;100.00;101423.00;5011599;28;20069;-62
2023/07/17 03:40:40;;;;;;;11.43;3.33;;;;;;;14.98;100.00;101425.53;5011415;28;20053;-62
2023/07/17 03:43:10;;;;;;;11.30;3.70;;;;;;;14.92;100.00;101423.34;5011573;28;20484;-57
2023/07/17 03:45:38;;;;;;;8.40;3.53;;;;;;;14.95;100.00;101427.56;5010136;28;20049;-57
2023/07/17 03:48:06;;;;;;;9.10;3.05;;;;;;;14.92;100.00;101431.28;5011345;28;20096;-57
2023/07/17 03:50:35;;;;;;;10.60;3.50;;;;;;;14.96;100.00;101429.25;5006812;28;20061;-56
2023/07/17 03:53:05;;;;;;;9.32;3.47;;;;;;;14.87;100.00;101431.63;5007836;28;20052;-56
2023/07/17 03:55:34;;;;;;;11.45;4.05;;;;;;;14.90;100.00;101441.13;5008747;28;20053;-56
2023/07/17 03:58:03;;;;;;;9.10;3.35;;;;;;;14.88;100.00;101440.41;5010177;28;20042;-56
2023/07/17 04:00:33;;;;;;;10.43;3.58;;;;;;;14.81;100.00;101436.53;5007153;28;20525;-56
2023/07/17 04:03:02;;;;;;;9.73;3.70;;;;;;;14.80;100.00;101440.13;5009602;28;20064;-65
2023/07/17 04:05:33;;;;;;;9.93;3.60;;;;;;;14.81;100.00;101441.84;5009668;28;20057;-62
2023/07/17 04:08:01;;;;;;;9.85;3.60;;;;;;;14.84;100.00;101450.38;5011686;28;20491;-64
2023/07/17 04:10:30;;;;;;;8.50;3.78;;;;;;;14.85;100.00;101453.91;5011092;28;20045;-64
2023/07/17 04:12:58;;;;;;;9.88;3.55;;;;;;;14.76;100.00;101443.97;5011396;28;20061;-63
2023/07/17 04:15:28;;;;;;;13.05;3.78;;;;;;;14.78;100.00;101442.03;5009636;28;20044;-64
2023/07/17 04:17:58;;;;;;;11.50;3.50;;;;;;;14.79;100.00;101446.38;5013596;28;20041;-62
2023/07/17 04:20:27;;;;;;;7.53;3.67;;;;;;;14.74;100.00;101446.75;5010654;28;20065;-63
2023/07/17 04:22:55;;;;;;;8.70;3.67;;;;;;;14.72;100.00;101451.28;5012505;28;20056;-62
2023/07/17 04:25:23;;;;;;;9.05;4.18;;;;;;;14.72;100.00;101455.75;5011337;28;20050;-62
2023/07/17 04:27:51;;;;;;;10.50;3.72;;;;;;;14.79;100.00;101459.63;5009407;28;20046;-62
2023/07/17 04:30:19;;;;;;;12.75;3.97;;;;;;;14.85;100.00;101461.84;5013518;28;20073;-58
2023/07/17 04:32:48;;;;;;;11.75;4.57;;;;;;;14.80;100.00;101469.25;5010558;28;20046;-57
2023/07/17 04:35:17;;;;;;;11.60;3.80;;;;;;;14.76;100.00;101462.50;5012649;28;20053;-63
2023/07/17 04:37:50;;;;;;;12.15;3.65;;;;;;;14.79;100.00;101470.22;5014714;28;20066;-63
2023/07/17 04:40:18;;;;;;;10.77;3.80;;;;;;;14.78;100.00;101463.22;5013997;28;20054;-62
2023/07/17 04:42:46;;;;;;;8.45;3.72;;;;;;;14.79;100.00;101467.56;5011034;28;20049;-63
2023/07/17 04:45:16;;;;;;;11.23;4.50;;;;;;;14.80;100.00;101469.25;5009198;28;20049;-63
2023/07/17 04:47:44;;;;;;;9.95;3.97;;;;;;;14.84;100.00;101476.84;5010524;28;20050;-63
2023/07/17 04:50:13;;;;;;;11.20;4.45;;;;;;;14.83;100.00;101472.53;5010587;28;20520;-64
2023/07/17 04:52:42;;;;;;;12.48;3.85;;;;;;;14.84;100.00;101479.50;5010298;28;20820;-63
2023/07/17 04:55:11;;;;;;;11.35;4.43;;;;;;;14.86;100.00;101487.34;5013886;28;20057;-63
2023/07/17 04:57:39;;;;;;;11.13;3.88;;;;;;;14.96;100.00;101482.22;5009986;28;20068;-62
2023/07/17 05:00:11;;;;;;;13.48;4.38;;;;;;;14.87;100.00;101481.09;5010133;28;20042;-62
2023/07/17 05:02:39;;;;;;;12.18;4.63;;;;;;;14.97;100.00;101484.75;5011182;28;20504;-61
2023/07/17 05:05:08;;;;;;;12.63;5.07;;;;;;;14.90;100.00;101491.44;5010193;28;20382;-62
2023/07/17 05:07:36;;;;;;;11.82;4.38;;;;;;;14.93;100.00;101491.25;5013215;28;20465;-62
2023/07/17 05:10:10;;;;;;;11.02;4.82;;;;;;;14.98;100.00;101496.19;5013793;28;20049;-63
2023/07/17 05:12:39;;;;;;;17.35;5.35;;;;;;;15.04;100.00;101486.00;5014030;28;20097;-62
2023/07/17 05:15:08;;;;;;;11.57;4.88;;;;;;;15.11;100.00;101488.19;5008705;28;20576;-63
2023/07/17 05:17:38;;;;;;;15.32;5.00;;;;;;;15.16;100.00;101496.63;5009915;28;20504;-62
2023/07/17 05:20:09;;;;;;;12.10;4.65;;;;;;;15.14;100.00;101495.91;5010141;28;20061;-62
2023/07/17 05:22:37;;;;;;;13.07;4.97;;;;;;;15.21;100.00;101499.78;5010285;28;20041;-62
2023/07/17 05:25:08;;;;;;;15.57;5.35;;;;;;;15.27;100.00;101496.69;5009852;28;20108;-62
2023/07/17 05:27:36;;;;;;;13.95;5.20;;;;;;;15.32;100.00;101499.81;5012040;28;20111;-61
2023/07/17 05:30:06;;;;;;;10.98;4.93;;;;;;;15.38;100.00;101507.31;5007786;28;20481;-63
2023/07/17 05:32:34;;;;;;;15.82;5.18;;;;;;;15.46;100.00;101505.91;5009717;28;20057;-63
2023/07/17 05:35:02;;;;;;;12.57;5.50;;;;;;;15.53;100.00;101504.50;5012022;28;20532;-57
2023/07/17 05:37:30;;;;;;;13.32;6.07;;;;;;;15.55;100.00;101510.50;5009797;28;20045;-57
2023/07/17 05:39:59;;;;;;;13.15;5.40;;;;;;;15.63;100.00;101517.88;5011215;28;20493;-57
2023/07/17 05:42:28;;;;;;;12.07;5.43;;;;;;;15.70;100.00;101513.81;5011637;28;20105;-56
2023/07/17 05:44:56;;;;;;;15.27;5.00;;;;;;;15.76;100.00;101520.44;5007702;28;20144;-56
2023/07/17 05:47:24;;;;;;;15.77;5.80;;;;;;;15.86;100.00;101519.66;5010030;28;20077;-57
2023/07/17 05:49:53;;;;;;;13.30;5.72;;;;;;;15.92;100.00;101522.78;5013097;28;20136;-56
2023/07/17 05:52:21;;;;;;;13.88;5.68;;;;;;;16.00;100.00;101517.75;5012909;28;20505;-55
2023/07/17 05:54:52;;;;;;;13.55;5.65;;;;;;;16.06;100.00;101522.59;5009676;28;20050;-56
2023/07/17 05:57:20;;;;;;;17.60;6.07;;;;;;;16.07;100.00;101529.56;5009251;28;20068;-56
2023/07/17 05:59:50;;;;;;;14.02;5.93;;;;;;;16.17;100.00;101532.34;5012914;28;20038;-55
2023/07/17 06:02:18;;;;;;;13.88;6.10;;;;;;;16.28;100.00;101535.00;5012764;28;20069;-54
2023/07/17 06:04:46;;;;;;;17.08;6.30;;;;;;;16.33;100.00;101526.69;5011103;28;20631;-55
2023/07/17 06:07:14;;;;;;;17.10;6.57;;;;;;;16.39;100.00;101537.66;5009733;28;20052;-55
2023/07/17 06:09:43;;;;;;;16.55;7.00;;;;;;;16.42;100.00;101539.22;5009370;28;20050;-62
2023/07/17 06:12:11;;;;;;;14.00;6.05;;;;;;;16.48;100.00;101536.06;5010206;28;20056;-63
2023/07/17 06:14:39;;;;;;;17.10;6.88;;;;;;;16.49;100.00;101531.63;5008573;28;20076;-62
2023/07/17 06:17:08;;;;;;;16.55;6.95;;;;;;;16.62;100.00;101544.75;5009964;28;20054;-62
2023/07/17 06:19:36;;;;;;;15.63;6.32;;;;;;;16.75;100.00;101549.94;5009186;28;20120;-62
2023/07/17 06:22:05;;;;;;;14.68;6.30;;;;;;;16.81;100.00;101554.75;5010328;28;20057;-61
2023/07/17 06:24:33;;;;;;;15.07;7.10;;;;;;;16.86;100.00;101550.75;5010138;28;20052;-62
2023/07/17 06:27:02;;;;;;;17.42;7.03;;;;;;;17.08;100.00;101558.84;5009466;28;20488;-61
2023/07/17 06:29:30;;;;;;;17.30;7.30;;;;;;;17.09;100.00;101564.03;5010442;28;20460;-63
2023/07/17 06:31:59;;;;;;;17.15;7.15;;;;;;;17.15;100.00;101570.63;5009569;28;20050;-61
2023/07/17 06:34:28;;;;;;;17.92;7.10;;;;;;;17.16;100.00;101570.50;5009132;28;20049;-61
2023/07/17 06:37:00;;;;;;;15.00;6.50;;;;;;;17.30;100.00;101560.56;5009802;28;20092;-55
2023/07/17 06:39:29;;;;;;;14.07;6.75;;;;;;;17.38;100.00;101568.75;5012017;28;20133;-55
2023/07/17 06:41:57;;;;;;;15.63;6.22;;;;;;;17.49;100.00;101571.38;5012204;28;20053;-56
2023/07/17 06:44:25;;;;;;;17.30;7.38;;;;;;;17.62;100.00;101568.53;5008761;28;20492;-54
2023/07/17 06:46:53;;;;;;;15.82;6.38;;;;;;;17.69;100.00;101575.00;5008817;28;20100;-56
2023/07/17 06:49:21;;;;;;;16.52;6.85;;;;;;;17.66;100.00;101572.63;5007450;28;20046;-61
2023/07/17 06:51:52;;;;;;;17.65;6.88;;;;;;;17.76;100.00;101579.84;5008813;28;20057;-61
2023/07/17 06:54:21;;;;;;;17.80;6.60;;;;;;;17.81;100.00;101586.44;5008324;28;20049;-63
2023/07/17 06:56:49;;;;;;;14.35;6.90;;;;;;;17.94;100.00;101582.78;5007575;28;20061;-62
2023/07/17 06:59:17;;;;;;;17.95;7.35;;;;;;;18.05;100.00;101583.56;5007546;28;20112;-63
2023/07/17 07:01:45;;;;;;;16.17;7.13;;;;;;;18.22;100.00;101586.59;5010816;28;20061;-62
2023/07/17 07:04:13;;;;;;;14.93;6.72;;;;;;;18.25;100.00;101586.31;5011820;28;20108;-62
2023/07/17 07:06:42;;;;;;;13.27;6.38;;;;;;;18.41;100.00;101586.69;5011710;28;20045;-61
2023/07/17 07:09:11;;;;;;;15.63;6.20;;;;;;;18.30;100.00;101589.44;5010022;28;20061;-62
2023/07/17 07:11:40;;;;;;;17.55;6.95;;;;;;;18.54;100.00;101597.13;5007599;28;20054;-61
2023/07/17 07:14:08;;;;;;;14.90;6.53;;;;;;;18.56;100.00;101589.00;5007255;28;20049;-62
2023/07/17 07:16:36;;;;;;;14.63;6.60;;;;;;;18.58;100.00;101592.34;5008163;28;20066;-62
2023/07/17 07:19:04;;;;;;;16.20;6.55;;;;;;;18.62;100.00;101593.75;5008614;28;20064;-61
2023/07/17 07:21:35;;;;;;;17.50;7.25;;;;;;;18.56;100.00;101599.66;5009366;28;20124;-61
2023/07/17 07:24:07;;;;;;;17.02;6.53;;;;;;;18.59;100.00;101599.38;5011837;28;20057;-61
2023/07/17 07:26:37;;;;;;;12.50;5.90;;;;;;;18.62;100.00;101603.59;5011895;28;20076;-59
2023/07/17 07:29:05;;;;;;;14.38;5.78;;;;;;;18.67;100.00;101607.53;5006372;28;20046;-62
2023/07/17 07:31:33;;;;;;;15.27;6.22;;;;;;;18.75;100.00;101614.88;5008244;28;20457;-62
2023/07/17 07:34:02;;;;;;;15.98;6.90;;;;;;;18.83;100.00;101607.03;5008161;28;20049;-56
2023/07/17 07:36:30;;;;;;;15.07;6.18;;;;;;;18.94;100.00;101616.78;5008135;28;20046;-57
2023/07/17 07:38:58;;;;;;;13.73;6.15;;;;;;;19.00;100.00;101615.38;5013047;28;20058;-56
2023/07/17 07:41:27;;;;;;;14.20;5.68;;;;;;;19.05;100.00;101619.31;5013929;28;20421;-57
2023/07/17 07:43:57;;;;;;;13.13;6.07;;;;;;;19.11;100.00;101631.25;5015447;28;20737;-57
2023/07/17 07:46:25;;;;;;;12.85;5.60;;;;;;;19.22;100.00;101628.50;5014185;28;20046;-57
2023/07/17 07:48:54;;;;;;;14.00;5.63;;;;;;;19.38;100.00;101632.44;5011702;28;20069;-56
2023/07/17 07:51:22;;;;;;;14.52;5.30;;;;;;;19.36;100.00;101637.91;5014205;28;20049;-56
2023/07/17 07:53:50;;;;;;;14.30;5.55;;;;;;;19.58;100.00;101631.47;5015100;28;20115;-55
2023/07/17 07:56:20;;;;;;;12.00;5.72;;;;;;;19.70;100.00;101642.84;5011289;28;20075;-56
2023/07/17 07:58:49;;;;;;;9.90;5.13;;;;;;;19.87;100.00;101649.31;5011638;28;20794;-56
2023/07/17 08:01:18;;;;;;;10.10;4.78;;;;;;;19.65;100.00;101645.09;5013357;28;20084;-59
2023/07/17 08:03:47;;;;;;;12.85;5.43;;;;;;;19.93;100.00;101651.44;5011285;28;20058;-59
2023/07/17 08:06:16;;;;;;;11.25;5.20;;;;;;;19.96;100.00;101647.63;5011833;28;20944;-56
2023/07/17 08:08:44;;;;;;;13.45;5.22;;;;;;;20.08;100.00;101641.16;5014108;28;20049;-60
2023/07/17 08:11:12;;;;;;;15.05;4.95;;;;;;;20.39;100.00;101656.94;5014462;28;20045;-59
2023/07/17 08:13:41;;;;;;;10.13;4.82;;;;;;;20.65;100.00;101652.81;5010050;28;20477;-58
2023/07/17 08:16:09;;;;;;;12.00;5.07;;;;;;;20.69;100.00;101655.06;5011207;28;20698;-56
2023/07/17 08:18:39;;;;;;;9.75;4.35;;;;;;;20.83;100.00;101660.91;5011179;28;20095;-57
2023/07/17 08:21:07;;;;;;;9.20;4.75;;;;;;;20.64;100.00;101665.31;5011605;28;20037;-58
2023/07/17 08:23:36;;;;;;;11.32;4.60;;;;;;;20.64;100.00;101662.63;5012896;28;20100;-58
2023/07/17 08:26:05;;;;;;;11.73;5.03;;;;;;;20.88;100.00;101664.81;5014471;28;20053;-58
2023/07/17 08:28:33;;;;;;;11.38;4.80;;;;;;;21.07;100.00;101653.19;5014337;28;20048;-55
2023/07/17 08:31:03;;;;;;;13.73;5.07;;;;;;;21.22;100.00;101652.69;5014356;28;20046;-56
2023/07/17 08:33:31;;;;;;;11.27;4.55;;;;;;;21.48;100.00;101655.47;5014364;28;20045;-58
2023/07/17 08:36:00;;;;;;;12.25;4.43;;;;;;;21.69;100.00;101657.88;5009757;28;20069;-57
2023/07/17 08:38:29;;;;;;;9.95;4.15;;;;;;;21.79;100.00;101652.44;5010484;28;20456;-59
2023/07/17 08:41:00;;;;;;;12.18;4.45;;;;;;;21.69;100.00;101651.66;5012236;28;20524;-57
2023/07/17 08:43:29;;;;;;;13.10;4.05;;;;;;;21.55;100.00;101666.44;5014094;28;20052;-58
2023/07/17 08:45:58;;;;;;;9.20;3.50;;;;;;;21.40;100.00;101666.91;5014271;28;20599;-56
2023/07/17 08:48:29;;;;;;;9.52;4.40;;;;;;;21.27;100.00;101664.63;5012194;28;20089;-56
2023/07/17 08:51:01;;;;;;;10.57;4.20;;;;;;;21.59;100.00;101663.28;5013793;28;20477;-56
2023/07/17 08:53:31;;;;;;;11.20;4.35;;;;;;;22.10;100.00;101670.75;5014225;28;20525;-57
2023/07/17 08:55:59;;;;;;;11.82;4.00;;;;;;;22.29;100.00;101659.84;5014186;28;20080;-57
2023/07/17 08:58:29;;;;;;;10.07;3.83;;;;;;;22.62;100.00;101654.69;5010970;28;20875;-57
2023/07/17 09:00:58;;;;;;;9.85;3.70;;;;;;;22.75;100.00;101653.41;5009627;28;20066;-57
2023/07/17 09:03:27;;;;;;;9.63;4.07;;;;;;;22.82;100.00;101648.25;5010498;28;20128;-56
2023/07/17 09:05:55;;;;;;;11.15;3.80;;;;;;;22.59;100.00;101648.81;5011657;28;20533;-57
2023/07/17 09:08:25;;;;;;;11.65;3.90;;;;;;;22.61;100.00;101650.31;5013814;28;20092;-57
2023/07/17 09:11:02;;;;;;;9.60;3.55;;;;;;;23.01;100.00;101647.97;5011315;28;20141;-58
2023/07/17 09:13:38;;;;;;;11.65;4.07;;;;;;;23.02;100.00;101646.97;5009251;28;20115;-57
2023/07/17 09:16:14;;;;;;;9.05;3.28;;;;;;;23.26;100.00;101656.13;5013784;28;20096;-57
2023/07/17 09:18:43;;;;;;;9.50;3.60;;;;;;;23.58;100.00;101647.28;5013773;28;20050;-58
2023/07/17 09:21:13;;;;;;;10.90;3.70;;;;;;;23.55;100.00;101650.31;5013721;28;20038;-57
2023/07/17 09:23:47;;;;;;;9.68;3.20;;;;;;;23.62;100.00;101653.19;5009999;28;20108;-58
2023/07/17 09:26:16;;;;;;;10.43;3.67;;;;;;;23.42;100.00;101653.50;5009196;28;20274;-57
2023/07/17 09:28:48;;;;;;;10.07;3.85;;;;;;;23.33;100.00;101654.47;5013135;28;20048;-57
2023/07/17 09:31:24;;;;;;;11.70;3.97;;;;;;;23.37;100.00;101661.19;5011688;28;20049;-57
2023/07/17 09:33:52;;;;;;;7.50;3.15;;;;;;;23.37;100.00;101663.88;5009910;28;20579;-57
2023/07/17 09:36:21;;;;;;;10.25;3.05;;;;;;;23.56;100.00;101661.88;5009319;28;20046;-57
2023/07/17 09:38:55;;;;;;;8.60;3.30;;;;;;;23.72;100.00;101653.84;5011724;28;20073;-57
2023/07/17 09:41:25;;;;;;;10.43;3.40;;;;;;;23.71;100.00;101654.88;5012945;28;20048;-57
2023/07/17 09:43:55;;;;;;;13.75;3.38;;;;;;;23.97;100.00;101648.50;5013211;28;20631;-57
2023/07/17 09:46:25;;;;;;;8.02;2.88;;;;;;;23.98;100.00;101652.84;5013199;28;20512;-58
2023/07/17 09:48:54;;;;;;;9.30;3.03;;;;;;;23.67;100.00;101658.03;5008111;28;20595;-57
2023/07/17 09:51:23;;;;;;;9.52;3.20;;;;;;;24.05;99.79;101648.50;5010187;28;20514;-57
2023/07/17 09:53:52;;;;;;;9.63;3.55;;;;;;;23.86;100.00;101646.13;5010859;28;20061;-58
2023/07/17 09:56:21;;;;;;;8.35;2.92;;;;;;;24.47;100.00;101657.31;5008814;28;20049;-58
2023/07/17 09:58:51;;;;;;;10.20;2.80;;;;;;;24.06;97.44;101660.06;5012542;28;20226;-57
2023/07/17 10:01:20;;;;;;;8.40;3.35;;;;;;;24.17;100.00;101650.84;5012825;28;20041;-58
2023/07/17 10:03:50;;;;;;;9.75;3.13;;;;;;;24.06;100.00;101658.22;5011684;28;20576;-57
2023/07/17 10:06:20;;;;;;;7.43;2.92;;;;;;;24.70;93.94;101659.28;5013071;28;20049;-58
2023/07/17 10:08:51;;;;;;;8.80;3.20;;;;;;;24.93;96.04;101653.97;5012795;28;20097;-57
2023/07/17 10:11:21;;;;;;;10.75;3.05;;;;;;;24.92;95.56;101646.91;5012803;28;20414;-57
2023/07/17 10:13:50;;;;;;;7.10;3.28;;;;;;;25.44;86.43;101653.53;5012599;28;20856;-58
2023/07/17 10:16:19;;;;;;;9.32;3.10;;;;;;;25.88;85.06;101649.31;5012603;28;20042;-57
2023/07/17 10:18:49;;;;;;;8.68;3.13;;;;;;;26.04;79.29;101649.22;5012678;28;20478;-57
2023/07/17 10:21:18;;;;;;;10.68;3.15;;;;;;;25.58;76.86;101652.78;5012523;28;20124;-57
2023/07/17 10:23:49;;;;;;;7.22;2.70;;;;;;;25.91;78.35;101654.38;5011343;28;20057;-57
2023/07/17 10:26:21;;;;;;;12.98;3.50;;;;;;;25.08;79.42;101662.97;5012570;28;20411;-57
2023/07/17 10:28:51;;;;;;;9.43;3.27;;;;;;;25.60;83.46;101663.38;5012370;28;20042;-57
2023/07/17 10:31:20;;;;;;;8.18;3.50;;;;;;;25.96;81.71;101660.88;5012309;28;20081;-56
2023/07/17 10:33:51;;;;;;;9.43;3.05;;;;;;;26.26;78.32;101669.06;5012194;28;20081;-57
2023/07/17 10:36:20;;;;;;;9.48;3.17;;;;;;;25.64;77.54;101665.50;5012258;28;20046;-56
2023/07/17 10:38:53;;;;;;;9.38;3.15;;;;;;;26.12;77.58;101659.94;5010616;28;20057;-56
2023/07/17 10:41:26;;;;;;;10.88;3.22;;;;;;;26.57;76.46;101656.41;4973189;28;20042;-57
2023/07/17 10:44:01;;;;;;;9.45;2.90;;;;;;;26.87;72.35;101667.19;4970279;28;20042;-57
2023/07/17 10:46:46;;;;;;;9.10;3.00;;;;;;;26.65;72.44;101659.88;4969357;28;20062;-58
2023/07/17 10:49:16;;;;;;;9.57;2.95;;;;;;;26.80;71.96;101665.25;4969464;28;20054;-58
2023/07/17 10:51:45;;;;;;;7.70;2.75;;;;;;;27.23;73.81;101666.38;4972933;28;20503;-58
2023/07/17 10:54:15;;;;;;;8.77;3.38;;;;;;;26.97;70.78;101675.84;4971488;28;20090;-58
2023/07/17 10:56:46;;;;;;;7.60;2.33;;;;;;;26.09;68.84;101692.63;4970370;28;20049;-58
2023/07/17 10:59:17;;;;;;;5.27;1.87;;;;;;;25.57;67.64;101696.88;4967507;28;20050;-57
2023/07/17 11:01:48;;;;;;;5.88;1.83;;;;;;;25.18;69.01;101688.84;4969214;28;20043;-56
2023/07/17 11:04:18;;;;;;;3.88;1.23;;;;;;;24.36;72.33;101700.69;4969084;28;20256;-57
2023/07/17 11:06:47;;;;;;;3.50;1.40;;;;;;;23.91;74.26;101702.88;4970226;28;20136;-57
2023/07/17 11:09:15;;;;;;;3.13;1.20;;;;;;;23.53;76.84;101699.78;4970598;28;20050;-57
2023/07/17 11:11:45;;;;;;;5.00;1.35;;;;;;;24.18;73.82;101696.34;4968058;28;20043;-57
2023/07/17 11:14:14;;;;;;;3.08;1.23;;;;;;;24.31;73.77;101693.16;4970966;28;20406;-57
2023/07/17 11:16:42;;;;;;;4.93;1.30;;;;;;;24.47;74.95;101686.88;4971715;28;20105;-57
2023/07/17 11:19:13;;;;;;;5.57;1.23;;;;;;;24.21;74.65;101690.63;4968794;28;20098;-57
2023/07/17 11:21:41;;;;;;;5.00;1.58;;;;;;;23.96;72.18;101689.81;4970406;28;20486;-57
2023/07/17 11:24:09;;;;;;;3.67;1.50;;;;;;;24.58;74.13;101693.75;4972686;28;20043;-58